الصفحة الرئيسية
METAR-TAF:

METAR-TAF

مطار :

آغاجارى, إيران

دائرة عرض: 30-46N, خط طول: 049-40E, ارتفاع: 29 متر

مراقبة الطقس الحالي

تاريخ ووقت الإصدار 1ساعة و 11 دقيقة قبل الساعة 08:00UTC
ريح 10 عقدة من الجنوب/الجنوب الغربي
درجة الحرارة 42°درجة مئوية
الرطوبة 27%
ضغط 998 hPa
الرؤية 10 كم أو أكثر
الغيوم لا تقل 1500 م ولا وجود لمزنة ركامية السحاب الأسود

METAR: OIAG 140800Z 20010KT CAVOK 42/19 Q0998

زمن: 13:41 (09:11 UTC)


TAF: مفقودة

أرصاد الطقس والتوقعات من أكثر من 4000 مطار (تقارير الطقس للمطار METAR والتنبؤ بالطقس بالمطارTAF).

المحطات المتاحة هي النقط الصفراء والحمراء على الخريطة.

حرك المؤشر فوق النقطة لمعرفة اسم المحطة.

ثم انقر لمعرفة أرصاد وتوقعات الطقس.

لتغيير الخارطة: اضغط على الأزرار الخضراء مع رمز الصليب الأسود للتكبير. على الزر الأخضر مع شرطة للتصغير، أو على الأسهم الخضراء للخرائط المجاورة.


METAR-TAF: